DMBCF EDDV-XXXX

Flight info

Callsign DMBCF
Flight time N/A
Altitude
Route E ROUTE
Aircraft VL3

Departure

Time 2026-05-07 14:41
Airport Hannover Airport (EDDV)

Arrival

Time N/A
Airport XXXX
Time Latitude Longitude Altitude Speed Heading
2026-05-07 14:38 52.45661 9.69136 176 ft 17 kts 185°
2026-05-07 14:38 52.45551 9.69137 179 ft 7 kts 182°
2026-05-07 14:38 52.45548 9.69137 179 ft 0 kts 181°
2026-05-07 14:40 52.45532 9.69137 180 ft 13 kts 183°
2026-05-07 14:40 52.45456 9.69424 182 ft 63 kts 94°
2026-05-07 14:40 52.45419 9.70259 493 ft 78 kts 95°
2026-05-07 14:40 52.45351 9.71216 728 ft 96 kts 98°
2026-05-07 14:41 52.44972 9.72046 1006 ft 103 kts 157°
2026-05-07 14:41 52.44210 9.72319 1028 ft 121 kts 163°
2026-05-07 14:41 52.43392 9.72690 1043 ft 117 kts 147°
2026-05-07 14:41 52.42949 9.73706 1139 ft 110 kts 107°
2026-05-07 14:42 52.42738 9.74907 1228 ft 111 kts 95°
2026-05-07 14:42 52.42680 9.76196 1235 ft 110 kts 92°
2026-05-07 14:42 52.42748 9.77485 1072 ft 117 kts 79°
2026-05-07 14:42 52.42758 9.78771 1097 ft 110 kts 101°
2026-05-07 14:43 52.42481 9.79942 1207 ft 104 kts 110°
2026-05-07 14:43 52.42221 9.81031 1361 ft 104 kts 109°
2026-05-07 14:43 52.41904 9.82162 1258 ft 113 kts 114°
2026-05-07 14:43 52.41511 9.83309 1189 ft 115 kts 114°
2026-05-07 14:44 52.41146 9.84465 1141 ft 117 kts 116°
2026-05-07 14:44 52.40718 9.85554 1273 ft 112 kts 124°
2026-05-07 14:44 52.40226 9.86561 1246 ft 115 kts 123°
2026-05-07 14:44 52.39913 9.87758 1159 ft 114 kts 102°
2026-05-07 14:45 52.39734 9.88981 1117 ft 113 kts 101°
2026-05-07 14:45 52.39558 9.90256 999 ft 115 kts 101°
2026-05-07 14:45 52.39408 9.91524 932 ft 112 kts 96°
2026-05-07 14:45 52.39301 9.92802 836 ft 113 kts 94°
2026-05-07 14:46 52.39278 9.94054 914 ft 106 kts 86°
2026-05-07 14:46 52.39351 9.95276 957 ft 109 kts 82°
2026-05-07 14:46 52.39446 9.96521 960 ft 110 kts 82°
2026-05-07 14:46 52.39547 9.97765 951 ft 110 kts 84°
2026-05-07 14:47 52.39375 9.98936 1024 ft 108 kts 114°
2026-05-07 14:47 52.39017 10.00034 1071 ft 109 kts 116°
2026-05-07 14:47 52.38616 10.01087 1139 ft 108 kts 118°
2026-05-07 14:47 52.38213 10.02110 1256 ft 107 kts 118°
2026-05-07 14:48 52.37700 10.03045 1244 ft 114 kts 136°
2026-05-07 14:48 52.37124 10.03954 1244 ft 114 kts 126°
2026-05-07 14:48 52.36691 10.05014 1222 ft 114 kts 113°
2026-05-07 14:48 52.36364 10.06197 1192 ft 114 kts 114°
2026-05-07 14:49 52.35779 10.07009 1254 ft 114 kts 164°
2026-05-07 14:49 52.35003 10.06693 1238 ft 125 kts 216°
2026-05-07 14:49 52.34382 10.05699 1245 ft 121 kts 223°
2026-05-07 14:49 52.33707 10.04938 1344 ft 119 kts 199°
2026-05-07 14:50 52.32915 10.04538 1340 ft 120 kts 194°
2026-05-07 14:50 52.32100 10.04148 1351 ft 122 kts 192°
2026-05-07 14:50 52.31257 10.03886 1260 ft 127 kts 185°
2026-05-07 14:50 52.30407 10.03638 1286 ft 122 kts 188°
2026-05-07 14:51 52.29566 10.03390 1268 ft 124 kts 185°
2026-05-07 14:51 52.28700 10.03259 1193 ft 126 kts 179°
2026-05-07 14:51 52.27884 10.03208 984 ft 108 kts 176°
2026-05-07 14:51 52.27157 10.03293 552 ft 80 kts 172°
2026-05-07 14:52 52.26682 10.03310 282 ft 67 kts 174°
2026-05-07 14:52 52.26316 10.03454 295 ft 68 kts 149°
2026-05-07 14:52 52.25711 10.03876 308 ft 111 kts 154°
2026-05-07 14:52 52.25222 10.04217 375 ft 116 kts 154°
2026-05-07 14:53 52.24466 10.04209 1074 ft 95 kts 195°
2026-05-07 14:53 52.23989 10.03978 1105 ft 116 kts 194°
2026-05-07 14:53 52.22915 10.03424 431 ft 155 kts 193°
2026-05-07 14:53 52.22321 10.03043 489 ft 105 kts 205°
2026-05-07 14:54 52.21854 10.02884 294 ft 53 kts 162°
2026-05-07 14:54 52.21645 10.02968 294 ft 0 kts 218°